sensor_id;sensor_type;location;lat;lon;timestamp;temperature;humidity
48604;DHT22;32708;51.212;6.788;2023-09-30T00:05:54;16.60;99.90
48604;DHT22;32708;51.212;6.788;2023-09-30T00:09:28;14.00;99.90
48604;DHT22;32708;51.212;6.788;2023-09-30T00:12:12;15.30;99.90
48604;DHT22;32708;51.212;6.788;2023-09-30T00:15:14;15.40;99.90
48604;DHT22;32708;51.212;6.788;2023-09-30T00:17:41;15.20;99.90
48604;DHT22;32708;51.212;6.788;2023-09-30T00:20:17;15.10;99.90
48604;DHT22;32708;51.212;6.788;2023-09-30T00:22:46;14.90;99.90
48604;DHT22;32708;51.212;6.788;2023-09-30T00:25:13;14.80;99.90
48604;DHT22;32708;51.212;6.788;2023-09-30T00:27:39;14.80;99.90
48604;DHT22;32708;51.212;6.788;2023-09-30T00:30:07;14.90;99.90
48604;DHT22;32708;51.212;6.788;2023-09-30T00:32:39;15.30;99.90
48604;DHT22;32708;51.212;6.788;2023-09-30T00:35:08;14.90;99.90
48604;DHT22;32708;51.212;6.788;2023-09-30T00:37:38;14.80;99.90
48604;DHT22;32708;51.212;6.788;2023-09-30T00:40:05;14.80;99.90
48604;DHT22;32708;51.212;6.788;2023-09-30T00:42:32;14.70;99.90
48604;DHT22;32708;51.212;6.788;2023-09-30T00:45:02;14.70;99.90
48604;DHT22;32708;51.212;6.788;2023-09-30T00:47:31;14.60;99.90
48604;DHT22;32708;51.212;6.788;2023-09-30T00:49:59;14.60;99.90
48604;DHT22;32708;51.212;6.788;2023-09-30T00:52:27;13.80;99.90
48604;DHT22;32708;51.212;6.788;2023-09-30T00:54:54;14.70;99.90
48604;DHT22;32708;51.212;6.788;2023-09-30T00:57:24;14.80;99.90
48604;DHT22;32708;51.212;6.788;2023-09-30T00:59:54;14.60;99.90
48604;DHT22;32708;51.212;6.788;2023-09-30T01:02:21;14.30;99.90
48604;DHT22;32708;51.212;6.788;2023-09-30T01:04:49;14.50;99.90
48604;DHT22;32708;51.212;6.788;2023-09-30T01:07:19;14.40;99.90
48604;DHT22;32708;51.212;6.788;2023-09-30T01:09:49;14.50;99.90
48604;DHT22;32708;51.212;6.788;2023-09-30T01:12:21;14.40;99.90
48604;DHT22;32708;51.212;6.788;2023-09-30T01:14:48;14.50;99.90
48604;DHT22;32708;51.212;6.788;2023-09-30T01:17:17;14.40;99.90
48604;DHT22;32708;51.212;6.788;2023-09-30T01:19:44;14.40;99.90
48604;DHT22;32708;51.212;6.788;2023-09-30T01:22:11;14.40;99.90
48604;DHT22;32708;51.212;6.788;2023-09-30T01:24:41;14.50;99.90
48604;DHT22;32708;51.212;6.788;2023-09-30T01:27:09;14.40;99.90
48604;DHT22;32708;51.212;6.788;2023-09-30T01:29:45;14.40;99.90
48604;DHT22;32708;51.212;6.788;2023-09-30T01:32:18;14.40;99.90
48604;DHT22;32708;51.212;6.788;2023-09-30T01:34:47;14.40;99.90
48604;DHT22;32708;51.212;6.788;2023-09-30T01:37:14;15.00;99.90
48604;DHT22;32708;51.212;6.788;2023-09-30T01:39:42;14.30;99.90
48604;DHT22;32708;51.212;6.788;2023-09-30T01:42:10;14.40;99.90
48604;DHT22;32708;51.212;6.788;2023-09-30T01:44:39;14.30;99.90
48604;DHT22;32708;51.212;6.788;2023-09-30T01:47:05;14.30;99.90
48604;DHT22;32708;51.212;6.788;2023-09-30T01:49:31;14.20;99.90
48604;DHT22;32708;51.212;6.788;2023-09-30T01:51:58;14.30;99.90
48604;DHT22;32708;51.212;6.788;2023-09-30T01:54:25;14.30;99.90
48604;DHT22;32708;51.212;6.788;2023-09-30T01:56:51;14.30;99.90
48604;DHT22;32708;51.212;6.788;2023-09-30T01:59:18;14.30;99.90
48604;DHT22;32708;51.212;6.788;2023-09-30T02:01:44;14.30;99.90
48604;DHT22;32708;51.212;6.788;2023-09-30T02:04:14;14.30;99.90
48604;DHT22;32708;51.212;6.788;2023-09-30T02:06:43;13.40;99.90
48604;DHT22;32708;51.212;6.788;2023-09-30T02:09:09;14.40;99.90
48604;DHT22;32708;51.212;6.788;2023-09-30T02:11:36;14.40;99.90
48604;DHT22;32708;51.212;6.788;2023-09-30T02:14:04;14.30;99.90
48604;DHT22;32708;51.212;6.788;2023-09-30T02:16:33;14.30;99.90
48604;DHT22;32708;51.212;6.788;2023-09-30T02:18:59;14.40;99.90
48604;DHT22;32708;51.212;6.788;2023-09-30T02:21:26;14.30;99.90
48604;DHT22;32708;51.212;6.788;2023-09-30T02:23:54;14.30;99.90
48604;DHT22;32708;51.212;6.788;2023-09-30T02:26:22;14.30;99.90
48604;DHT22;32708;51.212;6.788;2023-09-30T02:28:51;14.40;99.90
48604;DHT22;32708;51.212;6.788;2023-09-30T02:31:23;14.30;99.90
48604;DHT22;32708;51.212;6.788;2023-09-30T02:33:56;14.10;99.90
48604;DHT22;32708;51.212;6.788;2023-09-30T02:36:22;14.00;99.90
48604;DHT22;32708;51.212;6.788;2023-09-30T02:38:49;13.90;99.90
48604;DHT22;32708;51.212;6.788;2023-09-30T02:41:16;14.00;99.90
48604;DHT22;32708;51.212;6.788;2023-09-30T02:43:43;14.10;99.90
48604;DHT22;32708;51.212;6.788;2023-09-30T02:46:09;14.10;99.90
48604;DHT22;32708;51.212;6.788;2023-09-30T02:48:35;14.10;99.90
48604;DHT22;32708;51.212;6.788;2023-09-30T02:51:01;12.90;99.90
48604;DHT22;32708;51.212;6.788;2023-09-30T02:53:28;14.20;99.90
48604;DHT22;32708;51.212;6.788;2023-09-30T02:55:54;14.00;99.90
48604;DHT22;32708;51.212;6.788;2023-09-30T02:58:24;14.00;99.90
48604;DHT22;32708;51.212;6.788;2023-09-30T03:00:50;13.90;99.90
48604;DHT22;32708;51.212;6.788;2023-09-30T03:03:16;13.90;99.90
48604;DHT22;32708;51.212;6.788;2023-09-30T03:05:42;14.00;99.90
48604;DHT22;32708;51.212;6.788;2023-09-30T03:08:08;13.80;99.90
48604;DHT22;32708;51.212;6.788;2023-09-30T03:10:36;13.90;99.90
48604;DHT22;32708;51.212;6.788;2023-09-30T03:13:07;14.60;99.90
48604;DHT22;32708;51.212;6.788;2023-09-30T03:15:35;13.80;99.90
48604;DHT22;32708;51.212;6.788;2023-09-30T03:18:03;13.90;99.90
48604;DHT22;32708;51.212;6.788;2023-09-30T03:20:29;13.90;99.90
48604;DHT22;32708;51.212;6.788;2023-09-30T03:22:57;13.80;99.90
48604;DHT22;32708;51.212;6.788;2023-09-30T03:25:23;13.80;99.90
48604;DHT22;32708;51.212;6.788;2023-09-30T03:27:49;13.70;99.90
48604;DHT22;32708;51.212;6.788;2023-09-30T03:30:17;13.70;99.90
48604;DHT22;32708;51.212;6.788;2023-09-30T03:32:45;13.70;99.90
48604;DHT22;32708;51.212;6.788;2023-09-30T03:35:12;14.80;99.90
48604;DHT22;32708;51.212;6.788;2023-09-30T03:37:48;13.60;99.90
48604;DHT22;32708;51.212;6.788;2023-09-30T03:40:16;13.60;99.90
48604;DHT22;32708;51.212;6.788;2023-09-30T03:42:48;13.60;99.90
48604;DHT22;32708;51.212;6.788;2023-09-30T03:45:15;13.60;99.90
48604;DHT22;32708;51.212;6.788;2023-09-30T03:47:43;13.40;99.90
48604;DHT22;32708;51.212;6.788;2023-09-30T03:50:09;13.30;99.90
48604;DHT22;32708;51.212;6.788;2023-09-30T03:52:41;14.30;99.90
48604;DHT22;32708;51.212;6.788;2023-09-30T03:55:14;13.30;99.90
48604;DHT22;32708;51.212;6.788;2023-09-30T03:57:41;13.20;99.90
48604;DHT22;32708;51.212;6.788;2023-09-30T04:00:08;13.30;99.90
48604;DHT22;32708;51.212;6.788;2023-09-30T04:02:42;13.20;99.90
48604;DHT22;32708;51.212;6.788;2023-09-30T04:05:10;13.20;99.90
48604;DHT22;32708;51.212;6.788;2023-09-30T04:07:39;13.20;99.90
48604;DHT22;32708;51.212;6.788;2023-09-30T04:10:05;13.10;99.90
48604;DHT22;32708;51.212;6.788;2023-09-30T04:12:31;13.10;99.90
48604;DHT22;32708;51.212;6.788;2023-09-30T04:14:58;13.00;99.90
48604;DHT22;32708;51.212;6.788;2023-09-30T04:17:25;12.90;99.90
48604;DHT22;32708;51.212;6.788;2023-09-30T04:19:53;13.00;99.90
48604;DHT22;32708;51.212;6.788;2023-09-30T04:22:19;13.00;99.90
48604;DHT22;32708;51.212;6.788;2023-09-30T04:24:47;14.70;99.90
48604;DHT22;32708;51.212;6.788;2023-09-30T04:27:16;13.50;99.90
48604;DHT22;32708;51.212;6.788;2023-09-30T04:29:42;14.50;99.90
48604;DHT22;32708;51.212;6.788;2023-09-30T04:32:09;12.80;99.90
48604;DHT22;32708;51.212;6.788;2023-09-30T04:34:35;12.90;99.90
48604;DHT22;32708;51.212;6.788;2023-09-30T04:37:01;12.90;99.90
48604;DHT22;32708;51.212;6.788;2023-09-30T04:39:28;13.00;99.90
48604;DHT22;32708;51.212;6.788;2023-09-30T04:41:54;12.90;99.90
48604;DHT22;32708;51.212;6.788;2023-09-30T04:44:20;12.90;99.90
48604;DHT22;32708;51.212;6.788;2023-09-30T04:46:48;12.90;99.90
48604;DHT22;32708;51.212;6.788;2023-09-30T04:49:15;12.90;99.90
48604;DHT22;32708;51.212;6.788;2023-09-30T04:51:41;12.90;99.90
48604;DHT22;32708;51.212;6.788;2023-09-30T04:54:08;12.90;99.90
48604;DHT22;32708;51.212;6.788;2023-09-30T04:56:35;12.90;99.90
48604;DHT22;32708;51.212;6.788;2023-09-30T04:59:02;12.90;99.90
48604;DHT22;32708;51.212;6.788;2023-09-30T05:01:30;12.90;99.90
48604;DHT22;32708;51.212;6.788;2023-09-30T05:03:56;12.90;99.90
48604;DHT22;32708;51.212;6.788;2023-09-30T05:06:23;12.90;99.90
48604;DHT22;32708;51.212;6.788;2023-09-30T05:08:49;12.90;99.90
48604;DHT22;32708;51.212;6.788;2023-09-30T05:11:15;12.80;99.90
48604;DHT22;32708;51.212;6.788;2023-09-30T05:13:41;12.80;99.90
48604;DHT22;32708;51.212;6.788;2023-09-30T05:16:07;12.80;99.90
48604;DHT22;32708;51.212;6.788;2023-09-30T05:18:34;12.80;99.90
48604;DHT22;32708;51.212;6.788;2023-09-30T05:21:00;12.80;99.90
48604;DHT22;32708;51.212;6.788;2023-09-30T05:23:26;12.80;99.90
48604;DHT22;32708;51.212;6.788;2023-09-30T05:25:52;12.80;99.90
48604;DHT22;32708;51.212;6.788;2023-09-30T05:28:22;12.90;99.90
48604;DHT22;32708;51.212;6.788;2023-09-30T05:30:48;12.80;99.90
48604;DHT22;32708;51.212;6.788;2023-09-30T05:33:16;12.80;99.90
48604;DHT22;32708;51.212;6.788;2023-09-30T05:35:42;12.80;99.90
48604;DHT22;32708;51.212;6.788;2023-09-30T05:38:09;12.80;99.90
48604;DHT22;32708;51.212;6.788;2023-09-30T05:40:37;12.80;99.90
48604;DHT22;32708;51.212;6.788;2023-09-30T05:43:03;12.80;99.90
48604;DHT22;32708;51.212;6.788;2023-09-30T05:45:32;12.80;99.90
48604;DHT22;32708;51.212;6.788;2023-09-30T05:48:03;12.80;99.90
48604;DHT22;32708;51.212;6.788;2023-09-30T05:50:34;12.80;99.90
48604;DHT22;32708;51.212;6.788;2023-09-30T05:53:02;12.70;99.90
48604;DHT22;32708;51.212;6.788;2023-09-30T05:55:30;12.70;99.90
48604;DHT22;32708;51.212;6.788;2023-09-30T05:57:57;12.70;99.90
48604;DHT22;32708;51.212;6.788;2023-09-30T06:00:25;14.30;99.90
48604;DHT22;32708;51.212;6.788;2023-09-30T06:02:57;12.80;99.90
48604;DHT22;32708;51.212;6.788;2023-09-30T06:05:24;12.70;99.90
48604;DHT22;32708;51.212;6.788;2023-09-30T06:07:59;12.60;99.90
48604;DHT22;32708;51.212;6.788;2023-09-30T06:10:31;12.80;99.90
48604;DHT22;32708;51.212;6.788;2023-09-30T06:13:28;12.80;99.90
48604;DHT22;32708;51.212;6.788;2023-09-30T06:16:04;12.80;99.90
48604;DHT22;32708;51.212;6.788;2023-09-30T06:18:41;12.90;99.90
48604;DHT22;32708;51.212;6.788;2023-09-30T06:21:15;13.70;99.90
48604;DHT22;32708;51.212;6.788;2023-09-30T06:23:49;13.30;99.90
48604;DHT22;32708;51.212;6.788;2023-09-30T06:26:19;13.80;99.90
48604;DHT22;32708;51.212;6.788;2023-09-30T06:28:58;13.80;99.90
48604;DHT22;32708;51.212;6.788;2023-09-30T06:31:26;13.80;99.90
48604;DHT22;32708;51.212;6.788;2023-09-30T06:33:55;14.30;99.90
48604;DHT22;32708;51.212;6.788;2023-09-30T06:36:24;13.90;99.90
48604;DHT22;32708;51.212;6.788;2023-09-30T06:38:56;14.80;99.90
48604;DHT22;32708;51.212;6.788;2023-09-30T06:41:27;15.20;99.90
48604;DHT22;32708;51.212;6.788;2023-09-30T06:43:59;15.00;99.90
48604;DHT22;32708;51.212;6.788;2023-09-30T06:46:29;15.40;99.90
48604;DHT22;32708;51.212;6.788;2023-09-30T06:49:04;15.50;99.90
48604;DHT22;32708;51.212;6.788;2023-09-30T06:51:31;15.20;99.90
48604;DHT22;32708;51.212;6.788;2023-09-30T06:54:04;15.10;99.90
48604;DHT22;32708;51.212;6.788;2023-09-30T06:56:37;14.00;99.90
48604;DHT22;32708;51.212;6.788;2023-09-30T06:59:04;15.30;99.90
48604;DHT22;32708;51.212;6.788;2023-09-30T07:01:32;15.60;99.90
48604;DHT22;32708;51.212;6.788;2023-09-30T07:04:16;15.60;99.90
48604;DHT22;32708;51.212;6.788;2023-09-30T07:07:00;16.00;99.90
48604;DHT22;32708;51.212;6.788;2023-09-30T07:09:51;16.50;99.90
48604;DHT22;32708;51.212;6.788;2023-09-30T07:12:28;17.70;99.90
48604;DHT22;32708;51.212;6.788;2023-09-30T07:15:05;16.50;99.90
48604;DHT22;32708;51.212;6.788;2023-09-30T07:17:37;17.00;99.90
48604;DHT22;32708;51.212;6.788;2023-09-30T07:20:08;19.00;99.90
48604;DHT22;32708;51.212;6.788;2023-09-30T07:22:45;17.70;99.90
48604;DHT22;32708;51.212;6.788;2023-09-30T07:25:22;17.60;99.90
48604;DHT22;32708;51.212;6.788;2023-09-30T07:27:53;17.40;99.90
48604;DHT22;32708;51.212;6.788;2023-09-30T07:30:37;17.20;99.90
48604;DHT22;32708;51.212;6.788;2023-09-30T07:33:06;17.20;99.90
48604;DHT22;32708;51.212;6.788;2023-09-30T07:35:39;17.80;99.90
48604;DHT22;32708;51.212;6.788;2023-09-30T07:38:09;17.50;99.90
48604;DHT22;32708;51.212;6.788;2023-09-30T07:40:38;16.40;99.90
48604;DHT22;32708;51.212;6.788;2023-09-30T07:43:16;16.40;99.90
48604;DHT22;32708;51.212;6.788;2023-09-30T07:46:06;16.50;99.90
48604;DHT22;32708;51.212;6.788;2023-09-30T07:48:37;17.20;99.90
48604;DHT22;32708;51.212;6.788;2023-09-30T07:51:11;17.40;99.90
48604;DHT22;32708;51.212;6.788;2023-09-30T07:53:39;17.50;99.90
48604;DHT22;32708;51.212;6.788;2023-09-30T07:56:39;17.00;99.90
48604;DHT22;32708;51.212;6.788;2023-09-30T07:59:08;16.70;99.90
48604;DHT22;32708;51.212;6.788;2023-09-30T08:01:48;16.70;99.90
48604;DHT22;32708;51.212;6.788;2023-09-30T08:04:15;17.00;99.90
48604;DHT22;32708;51.212;6.788;2023-09-30T08:06:48;16.90;99.90
48604;DHT22;32708;51.212;6.788;2023-09-30T08:09:20;16.70;99.90
48604;DHT22;32708;51.212;6.788;2023-09-30T08:11:53;16.70;99.90
48604;DHT22;32708;51.212;6.788;2023-09-30T08:14:33;16.00;99.90
48604;DHT22;32708;51.212;6.788;2023-09-30T08:17:49;16.60;99.90
48604;DHT22;32708;51.212;6.788;2023-09-30T08:20:45;16.30;99.90
48604;DHT22;32708;51.212;6.788;2023-09-30T08:24:53;16.50;99.90
48604;DHT22;32708;51.212;6.788;2023-09-30T08:38:10;16.90;99.90
48604;DHT22;32708;51.212;6.788;2023-09-30T08:49:30;17.60;99.90
48604;DHT22;32708;51.212;6.788;2023-09-30T08:53:16;18.30;99.90
48604;DHT22;32708;51.212;6.788;2023-09-30T08:56:28;17.90;99.90
48604;DHT22;32708;51.212;6.788;2023-09-30T08:59:34;17.80;99.90
48604;DHT22;32708;51.212;6.788;2023-09-30T09:04:04;18.10;99.90
48604;DHT22;32708;51.212;6.788;2023-09-30T09:07:00;18.20;99.90
48604;DHT22;32708;51.212;6.788;2023-09-30T09:10:46;18.30;99.90
48604;DHT22;32708;51.212;6.788;2023-09-30T09:18:05;18.70;99.90
48604;DHT22;32708;51.212;6.788;2023-09-30T09:21:25;18.90;99.90
48604;DHT22;32708;51.212;6.788;2023-09-30T09:29:13;20.50;81.00
48604;DHT22;32708;51.212;6.788;2023-09-30T09:37:41;18.30;69.20
48604;DHT22;32708;51.212;6.788;2023-09-30T09:41:31;19.70;39.40
48604;DHT22;32708;51.212;6.788;2023-09-30T09:49:59;21.20;1.00
48604;DHT22;32708;51.212;6.788;2023-09-30T09:57:32;20.70;1.00
48604;DHT22;32708;51.212;6.788;2023-09-30T11:37:37;20.40;1.00
48604;DHT22;32708;51.212;6.788;2023-09-30T11:40:12;20.70;66.00
48604;DHT22;32708;51.212;6.788;2023-09-30T11:42:40;20.80;99.90
48604;DHT22;32708;51.212;6.788;2023-09-30T11:45:21;20.40;99.90
48604;DHT22;32708;51.212;6.788;2023-09-30T11:47:50;20.80;99.90
48604;DHT22;32708;51.212;6.788;2023-09-30T11:50:17;21.30;39.00
48604;DHT22;32708;51.212;6.788;2023-09-30T11:52:44;21.20;99.90
48604;DHT22;32708;51.212;6.788;2023-09-30T11:55:12;20.90;99.90
48604;DHT22;32708;51.212;6.788;2023-09-30T11:57:42;20.50;99.90
48604;DHT22;32708;51.212;6.788;2023-09-30T12:00:09;20.60;99.90
48604;DHT22;32708;51.212;6.788;2023-09-30T12:02:40;20.40;1.00
48604;DHT22;32708;51.212;6.788;2023-09-30T12:05:08;20.80;99.90
48604;DHT22;32708;51.212;6.788;2023-09-30T12:07:38;19.30;55.20
48604;DHT22;32708;51.212;6.788;2023-09-30T12:10:07;21.50;99.90
48604;DHT22;32708;51.212;6.788;2023-09-30T12:12:34;20.20;99.90
48604;DHT22;32708;51.212;6.788;2023-09-30T12:15:00;21.10;99.90
48604;DHT22;32708;51.212;6.788;2023-09-30T12:17:29;21.00;90.20
48604;DHT22;32708;51.212;6.788;2023-09-30T12:19:55;20.50;99.90
48604;DHT22;32708;51.212;6.788;2023-09-30T12:22:21;20.40;99.90
48604;DHT22;32708;51.212;6.788;2023-09-30T12:24:47;20.30;99.90
48604;DHT22;32708;51.212;6.788;2023-09-30T12:27:15;20.20;99.90
48604;DHT22;32708;51.212;6.788;2023-09-30T12:29:43;20.10;99.90
48604;DHT22;32708;51.212;6.788;2023-09-30T12:32:10;20.20;99.90
48604;DHT22;32708;51.212;6.788;2023-09-30T12:34:36;19.20;1.00
48604;DHT22;32708;51.212;6.788;2023-09-30T12:37:03;20.30;99.90
48604;DHT22;32708;51.212;6.788;2023-09-30T12:39:29;20.10;99.90
48604;DHT22;32708;51.212;6.788;2023-09-30T12:41:59;20.30;1.00
48604;DHT22;32708;51.212;6.788;2023-09-30T12:44:25;20.50;99.90
48604;DHT22;32708;51.212;6.788;2023-09-30T12:46:51;20.60;1.00
48604;DHT22;32708;51.212;6.788;2023-09-30T12:49:18;20.60;15.30
48604;DHT22;32708;51.212;6.788;2023-09-30T12:51:46;21.80;99.90
48604;DHT22;32708;51.212;6.788;2023-09-30T12:54:12;20.50;99.90
48604;DHT22;32708;51.212;6.788;2023-09-30T12:56:40;20.50;99.90
48604;DHT22;32708;51.212;6.788;2023-09-30T12:59:10;20.70;99.90
48604;DHT22;32708;51.212;6.788;2023-09-30T13:01:36;21.10;99.90
48604;DHT22;32708;51.212;6.788;2023-09-30T13:04:03;20.90;1.00
48604;DHT22;32708;51.212;6.788;2023-09-30T13:06:31;21.00;23.20
48604;DHT22;32708;51.212;6.788;2023-09-30T13:09:01;21.20;99.90
48604;DHT22;32708;51.212;6.788;2023-09-30T13:11:30;21.40;99.90
48604;DHT22;32708;51.212;6.788;2023-09-30T13:13:57;21.40;25.00
48604;DHT22;32708;51.212;6.788;2023-09-30T13:16:23;21.00;99.90
48604;DHT22;32708;51.212;6.788;2023-09-30T13:18:50;20.70;99.90
48604;DHT22;32708;51.212;6.788;2023-09-30T13:21:18;20.90;14.00
48604;DHT22;32708;51.212;6.788;2023-09-30T13:23:44;22.10;99.90
48604;DHT22;32708;51.212;6.788;2023-09-30T13:26:11;20.90;99.90
48604;DHT22;32708;51.212;6.788;2023-09-30T13:28:37;20.70;99.90
48604;DHT22;32708;51.212;6.788;2023-09-30T13:31:05;20.80;1.00
48604;DHT22;32708;51.212;6.788;2023-09-30T13:33:33;20.80;60.00
48604;DHT22;32708;51.212;6.788;2023-09-30T13:35:59;20.80;99.90
48604;DHT22;32708;51.212;6.788;2023-09-30T13:38:26;21.00;1.00
48604;DHT22;32708;51.212;6.788;2023-09-30T13:40:52;20.60;99.90
48604;DHT22;32708;51.212;6.788;2023-09-30T13:43:19;20.70;99.90
48604;DHT22;32708;51.212;6.788;2023-09-30T13:45:45;21.00;44.80
48604;DHT22;32708;51.212;6.788;2023-09-30T13:48:11;20.60;99.90
48604;DHT22;32708;51.212;6.788;2023-09-30T13:50:38;20.40;99.90
48604;DHT22;32708;51.212;6.788;2023-09-30T13:53:04;19.70;99.90
48604;DHT22;32708;51.212;6.788;2023-09-30T13:55:31;20.00;1.00
48604;DHT22;32708;51.212;6.788;2023-09-30T13:57:57;20.10;99.90
48604;DHT22;32708;51.212;6.788;2023-09-30T14:00:23;20.00;99.90
48604;DHT22;32708;51.212;6.788;2023-09-30T14:02:50;20.00;1.00
48604;DHT22;32708;51.212;6.788;2023-09-30T14:05:17;20.10;99.90
48604;DHT22;32708;51.212;6.788;2023-09-30T14:07:44;20.20;79.40
48604;DHT22;32708;51.212;6.788;2023-09-30T14:10:10;20.20;99.90
48604;DHT22;32708;51.212;6.788;2023-09-30T14:12:37;20.10;1.00
48604;DHT22;32708;51.212;6.788;2023-09-30T14:15:06;20.00;99.40
48604;DHT22;32708;51.212;6.788;2023-09-30T14:17:36;20.10;99.90
48604;DHT22;32708;51.212;6.788;2023-09-30T14:20:03;20.20;1.00
48604;DHT22;32708;51.212;6.788;2023-09-30T14:22:31;19.60;99.90
48604;DHT22;32708;51.212;6.788;2023-09-30T14:24:57;20.10;99.90
48604;DHT22;32708;51.212;6.788;2023-09-30T14:27:24;20.10;99.90
48604;DHT22;32708;51.212;6.788;2023-09-30T14:29:52;20.00;99.90
48604;DHT22;32708;51.212;6.788;2023-09-30T14:32:18;19.90;99.90
48604;DHT22;32708;51.212;6.788;2023-09-30T14:34:45;19.80;1.00
48604;DHT22;32708;51.212;6.788;2023-09-30T14:37:11;19.90;1.00
48604;DHT22;32708;51.212;6.788;2023-09-30T14:39:37;20.00;99.90
48604;DHT22;32708;51.212;6.788;2023-09-30T14:42:07;18.20;99.90
48604;DHT22;32708;51.212;6.788;2023-09-30T14:44:33;20.00;99.90
48604;DHT22;32708;51.212;6.788;2023-09-30T14:46:59;19.70;1.00
48604;DHT22;32708;51.212;6.788;2023-09-30T14:49:26;19.80;99.90
48604;DHT22;32708;51.212;6.788;2023-09-30T14:51:52;20.00;99.90
48604;DHT22;32708;51.212;6.788;2023-09-30T14:54:18;19.90;99.90
48604;DHT22;32708;51.212;6.788;2023-09-30T14:56:45;19.90;99.90
48604;DHT22;32708;51.212;6.788;2023-09-30T14:59:12;19.90;99.90
48604;DHT22;32708;51.212;6.788;2023-09-30T15:01:38;20.00;99.90
48604;DHT22;32708;51.212;6.788;2023-09-30T15:04:05;18.90;1.00
48604;DHT22;32708;51.212;6.788;2023-09-30T15:06:33;19.80;99.90
48604;DHT22;32708;51.212;6.788;2023-09-30T15:09:01;19.70;99.90
48604;DHT22;32708;51.212;6.788;2023-09-30T15:11:28;19.80;1.00
48604;DHT22;32708;51.212;6.788;2023-09-30T15:13:54;19.90;99.90
48604;DHT22;32708;51.212;6.788;2023-09-30T15:16:23;20.00;99.90
48604;DHT22;32708;51.212;6.788;2023-09-30T15:18:50;19.90;99.90
48604;DHT22;32708;51.212;6.788;2023-09-30T15:21:17;19.80;1.00
48604;DHT22;32708;51.212;6.788;2023-09-30T15:23:46;19.70;99.90
48604;DHT22;32708;51.212;6.788;2023-09-30T15:26:13;19.70;99.90
48604;DHT22;32708;51.212;6.788;2023-09-30T15:28:39;19.70;99.90
48604;DHT22;32708;51.212;6.788;2023-09-30T15:31:06;19.70;99.90
48604;DHT22;32708;51.212;6.788;2023-09-30T15:33:34;19.90;66.10
48604;DHT22;32708;51.212;6.788;2023-09-30T15:36:14;19.70;99.90
48604;DHT22;32708;51.212;6.788;2023-09-30T15:38:43;19.60;99.90
48604;DHT22;32708;51.212;6.788;2023-09-30T15:41:12;19.50;59.60
48604;DHT22;32708;51.212;6.788;2023-09-30T15:43:40;19.50;99.90
48604;DHT22;32708;51.212;6.788;2023-09-30T15:46:08;19.40;1.00
48604;DHT22;32708;51.212;6.788;2023-09-30T15:48:34;19.50;99.90
48604;DHT22;32708;51.212;6.788;2023-09-30T15:51:01;19.40;31.40
48604;DHT22;32708;51.212;6.788;2023-09-30T15:53:28;19.50;99.90
48604;DHT22;32708;51.212;6.788;2023-09-30T15:55:59;19.40;99.90
48604;DHT22;32708;51.212;6.788;2023-09-30T15:58:25;19.40;1.00
48604;DHT22;32708;51.212;6.788;2023-09-30T16:00:52;19.60;1.00
48604;DHT22;32708;51.212;6.788;2023-09-30T16:03:19;19.60;99.90
48604;DHT22;32708;51.212;6.788;2023-09-30T16:05:46;19.60;99.90
48604;DHT22;32708;51.212;6.788;2023-09-30T16:08:13;18.90;99.90
48604;DHT22;32708;51.212;6.788;2023-09-30T16:10:40;19.60;67.70
48604;DHT22;32708;51.212;6.788;2023-09-30T16:13:07;18.70;42.10
48604;DHT22;32708;51.212;6.788;2023-09-30T16:15:39;19.10;99.90
48604;DHT22;32708;51.212;6.788;2023-09-30T16:18:08;19.50;94.70
48604;DHT22;32708;51.212;6.788;2023-09-30T16:20:35;19.50;99.90
48604;DHT22;32708;51.212;6.788;2023-09-30T16:23:02;19.50;99.90
48604;DHT22;32708;51.212;6.788;2023-09-30T16:25:28;19.40;99.90
48604;DHT22;32708;51.212;6.788;2023-09-30T16:27:55;19.30;99.90
48604;DHT22;32708;51.212;6.788;2023-09-30T16:30:21;19.30;32.90
48604;DHT22;32708;51.212;6.788;2023-09-30T16:32:48;19.30;99.90
48604;DHT22;32708;51.212;6.788;2023-09-30T16:35:25;19.20;34.70
48604;DHT22;32708;51.212;6.788;2023-09-30T16:37:52;19.10;71.00
48604;DHT22;32708;51.212;6.788;2023-09-30T16:40:21;19.00;99.90
48604;DHT22;32708;51.212;6.788;2023-09-30T16:42:47;19.10;99.90
48604;DHT22;32708;51.212;6.788;2023-09-30T16:45:13;19.00;96.60
48604;DHT22;32708;51.212;6.788;2023-09-30T16:47:40;19.00;99.90
48604;DHT22;32708;51.212;6.788;2023-09-30T16:50:06;18.90;99.90
48604;DHT22;32708;51.212;6.788;2023-09-30T16:52:34;18.80;1.00
48604;DHT22;32708;51.212;6.788;2023-09-30T16:55:00;18.80;1.00
48604;DHT22;32708;51.212;6.788;2023-09-30T16:57:27;18.70;1.00
48604;DHT22;32708;51.212;6.788;2023-09-30T16:59:53;18.60;23.10
48604;DHT22;32708;51.212;6.788;2023-09-30T17:02:21;18.70;99.90
48604;DHT22;32708;51.212;6.788;2023-09-30T17:04:47;18.70;99.90
48604;DHT22;32708;51.212;6.788;2023-09-30T17:07:19;17.70;99.90
48604;DHT22;32708;51.212;6.788;2023-09-30T17:09:45;18.90;99.90
48604;DHT22;32708;51.212;6.788;2023-09-30T17:12:12;18.50;99.90
48604;DHT22;32708;51.212;6.788;2023-09-30T17:14:38;18.40;99.90
48604;DHT22;32708;51.212;6.788;2023-09-30T17:17:05;18.40;99.90
48604;DHT22;32708;51.212;6.788;2023-09-30T17:19:31;18.40;1.00
48604;DHT22;32708;51.212;6.788;2023-09-30T17:21:57;18.30;1.00
48604;DHT22;32708;51.212;6.788;2023-09-30T17:24:23;18.30;1.00
48604;DHT22;32708;51.212;6.788;2023-09-30T17:26:50;18.20;1.00
48604;DHT22;32708;51.212;6.788;2023-09-30T17:29:16;18.10;1.00
48604;DHT22;32708;51.212;6.788;2023-09-30T17:31:43;18.00;1.00
48604;DHT22;32708;51.212;6.788;2023-09-30T17:34:09;18.00;1.00
48604;DHT22;32708;51.212;6.788;2023-09-30T17:36:36;18.00;1.00
48604;DHT22;32708;51.212;6.788;2023-09-30T17:39:02;17.90;1.00
48604;DHT22;32708;51.212;6.788;2023-09-30T17:41:29;17.90;1.00
48604;DHT22;32708;51.212;6.788;2023-09-30T17:43:55;17.90;1.00
48604;DHT22;32708;51.212;6.788;2023-09-30T17:46:21;17.80;1.00
48604;DHT22;32708;51.212;6.788;2023-09-30T17:48:48;17.70;1.00
48604;DHT22;32708;51.212;6.788;2023-09-30T17:51:15;17.80;1.00
48604;DHT22;32708;51.212;6.788;2023-09-30T17:53:49;17.80;1.00
48604;DHT22;32708;51.212;6.788;2023-09-30T17:56:19;17.70;1.80
48604;DHT22;32708;51.212;6.788;2023-09-30T17:58:47;17.80;14.60
48604;DHT22;32708;51.212;6.788;2023-09-30T18:01:14;17.70;3.00
48604;DHT22;32708;51.212;6.788;2023-09-30T18:03:45;17.60;14.20
48604;DHT22;32708;51.212;6.788;2023-09-30T18:06:12;17.30;60.00
48604;DHT22;32708;51.212;6.788;2023-09-30T18:08:40;17.50;27.30
48604;DHT22;32708;51.212;6.788;2023-09-30T18:11:07;17.40;32.80
48604;DHT22;32708;51.212;6.788;2023-09-30T18:13:38;17.40;33.70
48604;DHT22;32708;51.212;6.788;2023-09-30T18:16:05;17.40;18.50
48604;DHT22;32708;51.212;6.788;2023-09-30T18:18:34;17.40;18.30
48604;DHT22;32708;51.212;6.788;2023-09-30T18:21:02;17.40;30.80
48604;DHT22;32708;51.212;6.788;2023-09-30T18:23:29;17.40;45.40